Time;durP1;ratioP1;P1;durP2;ratioP2;P2;SDS_P1;SDS_P2;PMS_P1;PMS_P2;Temp;Humidity;BMP_temperature;BMP_pressure;BME280_temperature;BME280_humidity;BME280_pressure;Samples;Min_cycle;Max_cycle;Signal;HPM_P1;HPM_P2
2024/03/20 00:00:36;;;;;;;;;;;5.70;99.90;;;;;;4972724;28;19930;-63
2024/03/20 00:03:02;;;;;;;;;;;5.70;99.90;;;;;;4964414;28;19933;-63
2024/03/20 00:05:28;;;;;;;;;;;5.60;99.90;;;;;;4960963;28;19930;-63
2024/03/20 00:07:55;;;;;;;;;;;5.60;99.90;;;;;;4977894;28;19937;-63
2024/03/20 00:10:22;;;;;;;;;;;5.60;99.90;;;;;;4979730;28;19930;-63
2024/03/20 00:12:48;;;;;;;;;;;5.60;99.90;;;;;;4955540;28;20426;-63
2024/03/20 00:15:14;;;;;;;;;;;5.50;99.90;;;;;;4986029;28;19981;-63
2024/03/20 00:17:41;;;;;;;;;;;5.50;99.90;;;;;;4963320;28;19938;-63
2024/03/20 00:20:07;;;;;;;;;;;5.40;99.90;;;;;;4966591;28;19930;-63
2024/03/20 00:22:35;;;;;;;;;;;5.40;99.90;;;;;;4994490;28;20459;-63
2024/03/20 00:25:01;;;;;;;;;;;5.40;99.90;;;;;;4978251;28;20200;-63
2024/03/20 00:27:27;;;;;;;;;;;5.40;99.90;;;;;;4979992;28;19976;-63
2024/03/20 00:29:53;;;;;;;;;;;5.40;99.90;;;;;;4979455;28;19980;-63
2024/03/20 00:32:19;;;;;;;;;;;5.30;99.90;;;;;;4978554;28;19926;-63
2024/03/20 00:34:45;;;;;;;;;;;5.30;99.90;;;;;;4979347;28;19932;-63
2024/03/20 00:37:11;;;;;;;;;;;5.30;99.90;;;;;;4993744;28;19980;-63
2024/03/20 00:39:37;;;;;;;;;;;5.30;99.90;;;;;;4974039;28;19934;-63
2024/03/20 00:42:04;;;;;;;;;;;5.30;99.90;;;;;;4959498;28;20025;-67
2024/03/20 00:44:30;;;;;;;;;;;5.20;99.90;;;;;;4972693;28;19937;-64
2024/03/20 00:46:56;;;;;;;;;;;5.30;99.90;;;;;;4991031;28;19926;-63
2024/03/20 00:49:22;;;;;;;;;;;5.20;99.90;;;;;;4993010;28;19930;-63
2024/03/20 00:51:48;;;;;;;;;;;5.20;99.90;;;;;;4977263;28;19934;-63
2024/03/20 00:54:14;;;;;;;;;;;5.20;99.90;;;;;;4991443;28;19930;-63
2024/03/20 00:56:40;;;;;;;;;;;5.20;99.90;;;;;;4972796;28;19930;-64
2024/03/20 00:59:06;;;;;;;;;;;5.20;99.90;;;;;;4971661;28;20000;-64
2024/03/20 01:01:32;;;;;;;;;;;5.10;99.90;;;;;;4970156;28;19950;-63
2024/03/20 01:03:58;;;;;;;;;;;5.10;99.90;;;;;;4968174;28;19957;-64
2024/03/20 01:06:24;;;;;;;;;;;5.10;99.90;;;;;;4965779;28;20052;-63
2024/03/20 01:08:49;;;;;;;;;;;5.00;99.90;;;;;;4964075;28;19936;-63
2024/03/20 01:11:15;;;;;;;;;;;5.00;99.90;;;;;;4962569;28;20024;-63
2024/03/20 01:13:41;;;;;;;;;;;5.00;99.90;;;;;;4976962;28;19934;-63
2024/03/20 01:16:07;;;;;;;;;;;5.00;99.90;;;;;;4957749;28;20465;-63
2024/03/20 01:18:33;;;;;;;;;;;5.00;99.90;;;;;;4958735;28;19926;-63
2024/03/20 01:20:59;;;;;;;;;;;5.00;99.90;;;;;;4958378;28;20318;-63
2024/03/20 01:23:25;;;;;;;;;;;5.00;99.90;;;;;;4962831;28;19981;-63
2024/03/20 01:25:51;;;;;;;;;;;4.90;99.90;;;;;;4959058;28;19980;-63
2024/03/20 01:28:17;;;;;;;;;;;4.90;99.90;;;;;;4975365;28;19984;-63
2024/03/20 01:30:43;;;;;;;;;;;4.90;99.90;;;;;;4967262;28;19930;-63
2024/03/20 01:33:09;;;;;;;;;;;4.90;99.90;;;;;;4965072;28;19926;-63
2024/03/20 01:35:35;;;;;;;;;;;4.90;99.90;;;;;;4958573;28;19992;-64
2024/03/20 01:38:01;;;;;;;;;;;4.90;99.90;;;;;;4961673;28;20402;-63
2024/03/20 01:40:27;;;;;;;;;;;4.90;99.90;;;;;;4958007;28;19945;-63
2024/03/20 01:42:54;;;;;;;;;;;4.90;99.90;;;;;;4958948;28;20041;-63
2024/03/20 01:45:21;;;;;;;;;;;4.90;99.90;;;;;;4975701;28;20382;-63
2024/03/20 01:47:47;;;;;;;;;;;4.80;99.90;;;;;;4972989;28;19941;-63
2024/03/20 01:50:14;;;;;;;;;;;4.80;99.90;;;;;;4987600;28;20345;-63
2024/03/20 01:52:52;;;;;;;;;;;4.80;99.90;;;;;;4969991;28;19956;-64
2024/03/20 01:55:19;;;;;;;;;;;4.80;99.90;;;;;;4967826;28;19926;-64
2024/03/20 01:57:44;;;;;;;;;;;4.70;99.90;;;;;;4958683;28;19948;-63
2024/03/20 02:00:13;;;;;;;;;;;4.70;99.90;;;;;;4964419;28;20393;-63
2024/03/20 02:02:42;;;;;;;;;;;4.70;99.90;;;;;;4962098;28;20333;-63
2024/03/20 02:05:07;;;;;;;;;;;4.70;99.90;;;;;;4960087;28;20374;-63
2024/03/20 02:07:33;;;;;;;;;;;4.60;99.90;;;;;;4972674;28;19926;-63
2024/03/20 02:09:59;;;;;;;;;;;4.60;99.90;;;;;;4957500;28;19926;-63
2024/03/20 02:12:25;;;;;;;;;;;4.60;99.90;;;;;;4974068;28;20390;-63
2024/03/20 02:14:51;;;;;;;;;;;4.60;99.90;;;;;;4958450;28;19925;-63
2024/03/20 02:17:17;;;;;;;;;;;4.50;99.90;;;;;;4970668;28;19995;-63
2024/03/20 02:19:43;;;;;;;;;;;4.50;99.90;;;;;;4968650;28;19945;-63
2024/03/20 02:22:09;;;;;;;;;;;4.50;99.90;;;;;;4958205;28;19934;-63
2024/03/20 02:24:35;;;;;;;;;;;4.50;99.90;;;;;;4964473;28;19925;-63
2024/03/20 02:27:01;;;;;;;;;;;4.40;99.90;;;;;;4968488;28;19932;-63
2024/03/20 02:29:27;;;;;;;;;;;4.40;99.90;;;;;;4970088;28;19944;-63
2024/03/20 02:31:53;;;;;;;;;;;4.40;99.90;;;;;;4972737;28;19948;-63
2024/03/20 02:34:19;;;;;;;;;;;4.40;99.90;;;;;;4990390;28;19980;-63
2024/03/20 02:36:46;;;;;;;;;;;4.30;99.90;;;;;;4988019;28;20073;-63
2024/03/20 02:39:15;;;;;;;;;;;4.30;99.90;;;;;;4956643;28;19926;-63
2024/03/20 02:41:40;;;;;;;;;;;4.30;99.90;;;;;;4957353;28;19930;-63
2024/03/20 02:44:06;;;;;;;;;;;4.30;99.90;;;;;;4969495;28;19927;-63
2024/03/20 02:46:32;;;;;;;;;;;4.30;99.90;;;;;;4967727;28;19933;-63
2024/03/20 02:48:58;;;;;;;;;;;4.30;99.90;;;;;;4966168;28;19925;-63
2024/03/20 02:51:24;;;;;;;;;;;4.30;99.90;;;;;;4964041;28;19934;-63
2024/03/20 02:53:51;;;;;;;;;;;4.30;99.90;;;;;;4950811;28;20362;-63
2024/03/20 02:56:18;;;;;;;;;;;4.20;99.90;;;;;;4960591;28;19973;-63
2024/03/20 02:58:44;;;;;;;;;;;4.20;99.90;;;;;;4958457;28;19934;-63
2024/03/20 03:01:09;;;;;;;;;;;4.10;99.90;;;;;;4957225;28;19937;-63
2024/03/20 03:03:35;;;;;;;;;;;4.10;99.90;;;;;;4956221;28;19926;-63
2024/03/20 03:06:02;;;;;;;;;;;4.00;99.90;;;;;;4974278;28;20378;-63
2024/03/20 03:08:28;;;;;;;;;;;4.00;99.90;;;;;;4958271;28;19933;-63
2024/03/20 03:10:57;;;;;;;;;;;4.00;99.90;;;;;;4969414;28;19926;-63
2024/03/20 03:13:23;;;;;;;;;;;4.00;99.90;;;;;;4967002;28;19930;-63
2024/03/20 03:15:49;;;;;;;;;;;3.90;99.90;;;;;;4964683;28;20492;-64
2024/03/20 03:18:15;;;;;;;;;;;3.90;99.90;;;;;;4963547;28;19952;-63
2024/03/20 03:20:41;;;;;;;;;;;3.80;99.90;;;;;;4962330;28;20548;-63
2024/03/20 03:23:07;;;;;;;;;;;3.90;99.90;;;;;;4959775;28;19930;-63
2024/03/20 03:25:33;;;;;;;;;;;3.80;99.90;;;;;;4957916;28;19926;-63
2024/03/20 03:27:59;;;;;;;;;;;3.80;99.90;;;;;;4956376;28;19926;-64
2024/03/20 03:30:25;;;;;;;;;;;3.80;99.90;;;;;;4957417;28;20529;-63
2024/03/20 03:32:51;;;;;;;;;;;3.70;99.90;;;;;;4972454;28;19980;-63
2024/03/20 03:35:17;;;;;;;;;;;3.70;99.90;;;;;;4960335;28;19988;-63
2024/03/20 03:37:43;;;;;;;;;;;3.70;99.90;;;;;;4961973;28;19933;-64
2024/03/20 03:40:10;;;;;;;;;;;3.70;99.90;;;;;;4963884;28;20227;-64
2024/03/20 03:42:38;;;;;;;;;;;3.70;99.90;;;;;;4957265;28;19932;-64
2024/03/20 03:45:04;;;;;;;;;;;3.70;99.90;;;;;;4983291;28;19930;-63
2024/03/20 03:47:32;;;;;;;;;;;3.70;99.90;;;;;;4968762;28;19930;-63
2024/03/20 03:49:58;;;;;;;;;;;3.60;99.90;;;;;;4971046;28;19929;-63
2024/03/20 03:52:24;;;;;;;;;;;3.60;99.90;;;;;;4989326;28;19936;-63
2024/03/20 03:54:50;;;;;;;;;;;3.60;99.90;;;;;;4974098;28;19980;-63
2024/03/20 03:57:17;;;;;;;;;;;3.70;99.90;;;;;;4972981;28;19930;-63
2024/03/20 03:59:44;;;;;;;;;;;3.60;99.90;;;;;;4958022;28;19930;-63
2024/03/20 04:02:11;;;;;;;;;;;3.70;99.90;;;;;;4969735;28;19980;-64
2024/03/20 04:04:37;;;;;;;;;;;3.60;99.90;;;;;;4967987;28;19933;-63
2024/03/20 04:07:03;;;;;;;;;;;3.60;99.90;;;;;;4973333;28;20301;-63
2024/03/20 04:09:29;;;;;;;;;;;3.60;99.90;;;;;;4963604;28;20309;-63
2024/03/20 04:11:55;;;;;;;;;;;3.50;99.90;;;;;;4966108;28;19926;-63
2024/03/20 04:14:21;;;;;;;;;;;3.60;99.90;;;;;;4959753;28;19930;-63
2024/03/20 04:16:46;;;;;;;;;;;3.50;99.90;;;;;;4962234;28;19926;-63
2024/03/20 04:19:12;;;;;;;;;;;3.50;99.90;;;;;;4960589;28;19930;-63
2024/03/20 04:21:38;;;;;;;;;;;3.50;99.90;;;;;;4959673;28;19937;-63
2024/03/20 04:24:04;;;;;;;;;;;3.50;99.90;;;;;;4961227;28;19926;-63
2024/03/20 04:26:30;;;;;;;;;;;3.40;99.90;;;;;;4959850;28;19966;-63
2024/03/20 04:28:56;;;;;;;;;;;3.40;99.90;;;;;;4964026;28;19981;-64
2024/03/20 04:31:21;;;;;;;;;;;3.40;99.90;;;;;;4966047;28;19933;-63
2024/03/20 04:33:47;;;;;;;;;;;3.40;99.90;;;;;;4968448;28;19934;-64
2024/03/20 04:36:13;;;;;;;;;;;3.40;99.90;;;;;;4969876;28;20012;-63
2024/03/20 04:38:39;;;;;;;;;;;3.30;99.90;;;;;;4961221;28;19933;-63
2024/03/20 04:41:05;;;;;;;;;;;3.30;99.90;;;;;;4972544;28;19926;-63
2024/03/20 04:43:31;;;;;;;;;;;3.30;99.90;;;;;;4972542;28;20317;-63
2024/03/20 04:45:57;;;;;;;;;;;3.30;99.90;;;;;;4958763;28;19954;-63
2024/03/20 04:48:23;;;;;;;;;;;3.20;99.90;;;;;;4958924;28;20520;-63
2024/03/20 04:50:49;;;;;;;;;;;3.20;99.90;;;;;;4960935;28;19957;-63
2024/03/20 04:53:15;;;;;;;;;;;3.20;99.90;;;;;;4981153;28;19949;-65
2024/03/20 04:55:41;;;;;;;;;;;3.20;99.90;;;;;;4969334;28;20396;-63
2024/03/20 04:58:07;;;;;;;;;;;3.20;99.90;;;;;;4968490;28;20000;-63
2024/03/20 05:00:33;;;;;;;;;;;3.10;99.90;;;;;;4970374;28;19933;-63
2024/03/20 05:02:59;;;;;;;;;;;3.10;99.90;;;;;;4957013;28;20390;-63
2024/03/20 05:05:25;;;;;;;;;;;3.10;99.90;;;;;;4976682;28;19981;-63
2024/03/20 05:07:51;;;;;;;;;;;3.10;99.90;;;;;;4967029;28;19930;-63
2024/03/20 05:10:17;;;;;;;;;;;3.10;99.90;;;;;;4958612;28;19926;-63
2024/03/20 05:12:43;;;;;;;;;;;3.10;99.90;;;;;;4958958;28;20080;-65
2024/03/20 05:15:10;;;;;;;;;;;3.10;99.90;;;;;;4964596;28;20017;-63
2024/03/20 05:17:35;;;;;;;;;;;3.10;99.90;;;;;;4954895;28;19957;-63
2024/03/20 05:20:04;;;;;;;;;;;3.10;99.90;;;;;;4975169;28;20445;-63
2024/03/20 05:22:31;;;;;;;;;;;3.00;99.90;;;;;;4972228;28;19934;-63
2024/03/20 05:24:56;;;;;;;;;;;3.00;99.90;;;;;;4960103;28;19926;-63
2024/03/20 05:27:22;;;;;;;;;;;3.00;99.90;;;;;;4969669;28;19933;-63
2024/03/20 05:29:48;;;;;;;;;;;3.00;99.90;;;;;;4989149;28;19965;-63
2024/03/20 05:32:14;;;;;;;;;;;3.00;99.90;;;;;;4996180;28;19930;-63
2024/03/20 05:34:42;;;;;;;;;;;3.00;99.90;;;;;;4961194;28;21405;-62
2024/03/20 05:37:08;;;;;;;;;;;3.00;99.90;;;;;;4976361;28;21527;-63
2024/03/20 05:39:34;;;;;;;;;;;3.00;99.90;;;;;;4994381;28;19937;-63
2024/03/20 05:42:00;;;;;;;;;;;3.00;99.90;;;;;;4971552;28;19937;-63
2024/03/20 05:44:26;;;;;;;;;;;3.00;99.90;;;;;;4954709;28;19925;-64
2024/03/20 05:46:52;;;;;;;;;;;2.90;99.90;;;;;;4969835;28;19930;-66
2024/03/20 05:49:18;;;;;;;;;;;2.90;99.90;;;;;;4957268;28;19932;-62
2024/03/20 05:51:46;;;;;;;;;;;2.90;99.90;;;;;;4974409;28;19932;-63
2024/03/20 05:54:12;;;;;;;;;;;3.00;99.90;;;;;;4970613;28;19926;-63
2024/03/20 05:56:38;;;;;;;;;;;3.00;99.90;;;;;;4971807;28;19967;-63
2024/03/20 05:59:04;;;;;;;;;;;3.00;99.90;;;;;;4967862;28;19933;-63
2024/03/20 06:01:30;;;;;;;;;;;3.00;99.90;;;;;;4957469;28;20302;-63
2024/03/20 06:03:55;;;;;;;;;;;3.00;99.90;;;;;;4959959;28;20451;-63
2024/03/20 06:06:21;;;;;;;;;;;3.10;99.90;;;;;;4961481;28;20302;-63
2024/03/20 06:08:47;;;;;;;;;;;3.10;99.90;;;;;;4964399;28;20000;-63
2024/03/20 06:11:31;;;;;;;;;;;3.10;99.90;;;;;;4991019;28;19921;-64
2024/03/20 06:14:00;;;;;;;;;;;3.10;99.90;;;;;;4972083;28;20361;-63
2024/03/20 06:16:26;;;;;;;;;;;3.10;99.90;;;;;;4972400;28;19930;-63
2024/03/20 06:18:52;;;;;;;;;;;3.10;99.90;;;;;;4970958;28;19925;-63
2024/03/20 06:21:18;;;;;;;;;;;3.20;99.90;;;;;;4970788;28;19937;-63
2024/03/20 06:23:44;;;;;;;;;;;3.20;99.90;;;;;;4969202;28;19934;-63
2024/03/20 06:26:10;;;;;;;;;;;3.20;99.90;;;;;;4956141;28;19934;-63
2024/03/20 06:28:36;;;;;;;;;;;3.20;99.90;;;;;;4969215;28;19961;-63
2024/03/20 06:31:02;;;;;;;;;;;3.20;99.90;;;;;;4963160;28;19930;-63
2024/03/20 06:33:28;;;;;;;;;;;3.20;99.90;;;;;;4953842;28;20009;-63
2024/03/20 06:35:54;;;;;;;;;;;3.20;99.90;;;;;;4968828;28;19926;-63
2024/03/20 06:38:20;;;;;;;;;;;3.20;99.90;;;;;;4966717;28;19977;-63
2024/03/20 06:40:47;;;;;;;;;;;3.10;99.90;;;;;;4955756;28;19934;-63
2024/03/20 06:43:16;;;;;;;;;;;3.10;99.90;;;;;;4987951;28;19960;-64
2024/03/20 06:45:47;;;;;;;;;;;3.10;99.90;;;;;;4954404;28;20318;-63
2024/03/20 06:48:15;;;;;;;;;;;3.20;99.90;;;;;;4970041;28;19926;-63
2024/03/20 06:50:48;;;;;;;;;;;3.20;99.90;;;;;;4969130;28;19936;-63
2024/03/20 06:53:14;;;;;;;;;;;3.20;99.90;;;;;;4969477;28;19968;-63
2024/03/20 06:55:43;;;;;;;;;;;3.30;99.90;;;;;;4963536;28;19930;-67
2024/03/20 06:58:11;;;;;;;;;;;3.30;99.90;;;;;;4969698;28;19929;-63
2024/03/20 07:00:37;;;;;;;;;;;3.30;99.90;;;;;;4963867;28;19930;-64
2024/03/20 07:03:03;;;;;;;;;;;3.40;99.90;;;;;;4971345;28;19976;-63
2024/03/20 07:05:30;;;;;;;;;;;3.50;99.90;;;;;;4970514;28;19933;-63
2024/03/20 07:07:55;;;;;;;;;;;3.50;99.90;;;;;;4969829;28;19931;-63
2024/03/20 07:10:21;;;;;;;;;;;3.60;99.90;;;;;;4953168;28;20445;-63
2024/03/20 07:12:47;;;;;;;;;;;3.70;99.90;;;;;;4968088;28;20418;-63
2024/03/20 07:15:13;;;;;;;;;;;3.80;99.90;;;;;;4967733;28;20465;-63
2024/03/20 07:17:40;;;;;;;;;;;3.80;99.90;;;;;;4966297;28;20020;-63
2024/03/20 07:20:07;;;;;;;;;;;3.90;99.90;;;;;;4950297;28;19934;-63
2024/03/20 07:22:33;;;;;;;;;;;4.00;99.90;;;;;;4972091;28;19980;-63
2024/03/20 07:24:59;;;;;;;;;;;4.10;99.90;;;;;;4970700;28;20025;-63
2024/03/20 07:27:25;;;;;;;;;;;4.20;99.90;;;;;;4968692;28;19933;-64
2024/03/20 07:29:51;;;;;;;;;;;4.30;99.90;;;;;;4966805;28;19926;-64
2024/03/20 07:32:17;;;;;;;;;;;4.40;99.90;;;;;;4966391;28;19930;-63
2024/03/20 07:34:43;;;;;;;;;;;4.50;99.90;;;;;;4965469;28;19936;-63
2024/03/20 07:37:09;;;;;;;;;;;4.50;99.90;;;;;;4966293;28;20404;-63
2024/03/20 07:39:36;;;;;;;;;;;4.70;99.90;;;;;;4966326;28;19930;-63
2024/03/20 07:42:02;;;;;;;;;;;4.80;99.90;;;;;;4965914;28;19984;-63
2024/03/20 07:44:29;;;;;;;;;;;4.90;99.90;;;;;;4968266;28;19933;-63
2024/03/20 07:46:59;;;;;;;;;;;5.00;99.90;;;;;;4965356;28;19940;-63
2024/03/20 07:49:25;;;;;;;;;;;5.00;99.90;;;;;;4957017;28;19997;-63
2024/03/20 07:51:51;;;;;;;;;;;5.10;99.90;;;;;;4963560;28;20415;-63
2024/03/20 07:54:23;;;;;;;;;;;5.30;99.90;;;;;;4956242;28;19926;-63
2024/03/20 07:56:52;;;;;;;;;;;5.40;99.90;;;;;;4965246;28;19930;-63
2024/03/20 07:59:18;;;;;;;;;;;5.40;99.90;;;;;;4962936;28;19930;-63
2024/03/20 08:01:45;;;;;;;;;;;5.50;99.90;;;;;;4982624;28;19973;-64
2024/03/20 08:04:11;;;;;;;;;;;5.70;99.90;;;;;;4955528;28;20294;-64
2024/03/20 08:06:36;;;;;;;;;;;5.80;99.90;;;;;;4954293;28;19926;-63
2024/03/20 08:09:04;;;;;;;;;;;5.90;99.90;;;;;;4959745;28;19981;-64
2024/03/20 08:11:30;;;;;;;;;;;6.10;99.90;;;;;;4965446;28;19937;-64
2024/03/20 08:14:07;;;;;;;;;;;6.20;99.90;;;;;;4962752;28;20307;-64
2024/03/20 08:16:34;;;;;;;;;;;6.30;99.90;;;;;;4953823;28;19930;-63
2024/03/20 08:19:00;;;;;;;;;;;6.40;99.90;;;;;;4962550;28;20382;-63
2024/03/20 08:21:26;;;;;;;;;;;6.50;99.90;;;;;;4966099;28;19946;-64
2024/03/20 08:23:52;;;;;;;;;;;6.70;99.90;;;;;;4970819;28;19927;-64
2024/03/20 08:26:19;;;;;;;;;;;6.80;99.90;;;;;;4955041;28;19937;-64
2024/03/20 08:28:44;;;;;;;;;;;7.00;99.90;;;;;;4954886;28;19976;-64
2024/03/20 08:31:10;;;;;;;;;;;7.10;99.90;;;;;;4954982;28;19981;-64
2024/03/20 08:33:36;;;;;;;;;;;7.20;99.90;;;;;;4964095;28;19926;-63
2024/03/20 08:36:08;;;;;;;;;;;7.40;99.90;;;;;;4963968;28;20021;-64
2024/03/20 08:38:34;;;;;;;;;;;7.50;99.90;;;;;;4961335;28;19980;-64
2024/03/20 08:41:00;;;;;;;;;;;7.60;99.90;;;;;;4958581;28;20298;-64
2024/03/20 08:43:25;;;;;;;;;;;7.70;99.90;;;;;;4956019;28;19981;-64
2024/03/20 08:45:52;;;;;;;;;;;7.90;99.90;;;;;;4986416;28;19926;-64
2024/03/20 08:48:18;;;;;;;;;;;8.00;99.90;;;;;;4964376;28;19930;-64
2024/03/20 08:50:44;;;;;;;;;;;8.10;99.90;;;;;;4962604;28;19969;-64
2024/03/20 08:53:13;;;;;;;;;;;8.20;99.90;;;;;;4962770;28;19925;-64
2024/03/20 08:55:39;;;;;;;;;;;8.40;99.90;;;;;;4963940;28;19930;-64
2024/03/20 08:58:05;;;;;;;;;;;8.50;99.90;;;;;;4969761;28;19934;-64
2024/03/20 09:00:31;;;;;;;;;;;8.60;99.90;;;;;;4966940;28;19930;-64
2024/03/20 09:02:57;;;;;;;;;;;8.70;99.90;;;;;;4966618;28;19926;-64
2024/03/20 09:05:23;;;;;;;;;;;8.80;99.90;;;;;;4967512;28;20445;-64
2024/03/20 09:07:49;;;;;;;;;;;9.00;99.90;;;;;;4968228;28;19926;-63
2024/03/20 09:10:16;;;;;;;;;;;9.10;99.90;;;;;;4976009;28;19934;-64
2024/03/20 09:12:42;;;;;;;;;;;9.20;99.90;;;;;;4963486;28;19992;-64
2024/03/20 09:15:08;;;;;;;;;;;9.30;99.90;;;;;;4973864;28;19949;-63
2024/03/20 09:17:34;;;;;;;;;;;9.40;99.90;;;;;;4968955;28;19961;-64
2024/03/20 09:20:03;;;;;;;;;;;9.50;99.90;;;;;;4958612;28;20305;-64
2024/03/20 09:22:29;;;;;;;;;;;9.60;99.90;;;;;;4971917;28;20402;-64
2024/03/20 09:24:55;;;;;;;;;;;9.80;99.90;;;;;;4969279;28;19937;-64
2024/03/20 09:27:21;;;;;;;;;;;9.90;99.90;;;;;;4964789;28;19930;-64
2024/03/20 09:29:47;;;;;;;;;;;10.10;99.90;;;;;;4962970;28;20000;-64
2024/03/20 09:32:13;;;;;;;;;;;10.20;99.90;;;;;;4975845;28;19993;-64
2024/03/20 09:34:39;;;;;;;;;;;10.30;99.90;;;;;;4969430;28;19934;-64
2024/03/20 09:37:05;;;;;;;;;;;10.50;99.90;;;;;;4956814;28;20397;-63
2024/03/20 09:39:32;;;;;;;;;;;10.60;99.90;;;;;;4968746;28;19926;-63
2024/03/20 09:41:58;;;;;;;;;;;10.70;99.90;;;;;;4969373;28;19937;-63
2024/03/20 09:44:24;;;;;;;;;;;10.90;99.90;;;;;;4967807;28;19937;-63
2024/03/20 09:46:51;;;;;;;;;;;11.00;99.90;;;;;;4973291;28;20432;-63
2024/03/20 09:49:19;;;;;;;;;;;11.20;99.90;;;;;;4967536;28;19984;-63
2024/03/20 09:51:45;;;;;;;;;;;11.40;99.90;;;;;;4970687;28;19933;-64
2024/03/20 09:54:11;;;;;;;;;;;11.60;99.90;;;;;;4985012;28;19926;-64
2024/03/20 09:56:37;;;;;;;;;;;11.80;99.90;;;;;;4953878;28;19981;-64
2024/03/20 09:59:07;;;;;;;;;;;12.00;99.90;;;;;;4968486;28;19957;-64
2024/03/20 10:01:33;;;;;;;;;;;12.10;99.90;;;;;;4958860;28;19926;-64
2024/03/20 10:04:04;;;;;;;;;;;12.30;99.90;;;;;;4961961;28;19938;-64
2024/03/20 10:06:31;;;;;;;;;;;12.50;99.90;;;;;;4971081;28;19927;-64
2024/03/20 10:08:57;;;;;;;;;;;12.60;99.90;;;;;;4965492;28;19926;-64
2024/03/20 10:11:23;;;;;;;;;;;12.80;99.90;;;;;;4960780;28;20054;-66
2024/03/20 10:13:49;;;;;;;;;;;12.90;99.90;;;;;;4967912;28;19929;-64
2024/03/20 10:16:16;;;;;;;;;;;13.10;99.90;;;;;;4966297;28;20510;-63
2024/03/20 10:18:43;;;;;;;;;;;13.30;99.90;;;;;;4974066;28;19930;-64
2024/03/20 10:21:09;;;;;;;;;;;13.50;99.90;;;;;;4970512;28;20329;-64
2024/03/20 10:23:42;;;;;;;;;;;13.60;99.90;;;;;;4969979;28;19930;-64
2024/03/20 10:26:15;;;;;;;;;;;13.80;99.90;;;;;;4966515;28;19953;-64
2024/03/20 10:28:41;;;;;;;;;;;13.90;99.90;;;;;;4974875;28;19937;-64
2024/03/20 10:31:08;;;;;;;;;;;14.00;99.90;;;;;;4967301;28;19926;-64
2024/03/20 10:33:34;;;;;;;;;;;14.20;99.90;;;;;;4964319;28;19926;-64
2024/03/20 10:36:01;;;;;;;;;;;14.20;99.90;;;;;;4972951;28;19926;-63
2024/03/20 10:38:30;;;;;;;;;;;14.30;99.90;;;;;;4973860;28;20349;-64
2024/03/20 10:40:57;;;;;;;;;;;14.40;99.90;;;;;;4966831;28;19929;-64
2024/03/20 10:43:24;;;;;;;;;;;14.50;99.90;;;;;;4967789;28;19930;-63
2024/03/20 10:45:53;;;;;;;;;;;14.60;99.90;;;;;;4967917;28;20382;-64
2024/03/20 10:48:20;;;;;;;;;;;14.70;99.90;;;;;;4966694;28;20625;-64
2024/03/20 10:50:53;;;;;;;;;;;14.80;99.90;;;;;;4962334;28;20390;-64
2024/03/20 10:53:24;;;;;;;;;;;14.90;99.90;;;;;;4971100;28;20471;-64
2024/03/20 10:55:51;;;;;;;;;;;15.00;99.90;;;;;;4957661;28;19930;-64
2024/03/20 10:58:18;;;;;;;;;;;15.10;99.90;;;;;;4961820;28;19937;-64
2024/03/20 11:00:50;;;;;;;;;;;15.20;99.90;;;;;;4960101;28;19930;-64
2024/03/20 11:03:35;;;;;;;;;;;15.30;99.90;;;;;;4965079;28;19926;-64
2024/03/20 11:06:01;;;;;;;;;;;15.30;99.90;;;;;;4977197;28;19976;-64
2024/03/20 11:08:27;;;;;;;;;;;15.40;99.90;;;;;;4965293;28;19926;-64
2024/03/20 11:10:53;;;;;;;;;;;15.50;99.90;;;;;;4956248;28;20309;-64
2024/03/20 11:13:21;;;;;;;;;;;15.60;99.90;;;;;;4965817;28;19926;-64
2024/03/20 11:15:52;;;;;;;;;;;15.70;99.90;;;;;;4960159;28;19957;-64
2024/03/20 11:18:21;;;;;;;;;;;15.80;99.90;;;;;;4962795;28;19980;-64
2024/03/20 11:20:47;;;;;;;;;;;15.90;99.90;;;;;;4959439;28;19930;-64
2024/03/20 11:23:24;;;;;;;;;;;15.90;99.90;;;;;;4962180;28;19957;-64
2024/03/20 11:25:50;;;;;;;;;;;16.00;99.90;;;;;;4958812;28;19978;-64
2024/03/20 11:28:16;;;;;;;;;;;16.00;99.90;;;;;;4969944;28;19926;-63
2024/03/20 11:30:42;;;;;;;;;;;16.10;99.90;;;;;;4966535;28;19930;-63
2024/03/20 11:33:11;;;;;;;;;;;16.10;99.90;;;;;;4977688;28;20604;-63
2024/03/20 11:35:37;;;;;;;;;;;16.20;99.90;;;;;;4965411;28;19933;-64
2024/03/20 11:38:05;;;;;;;;;;;16.30;99.90;;;;;;4963775;28;19926;-64
2024/03/20 11:40:34;;;;;;;;;;;16.40;99.90;;;;;;4970425;28;19926;-64
2024/03/20 11:42:59;;;;;;;;;;;16.40;99.90;;;;;;4972872;28;19934;-64
2024/03/20 11:45:26;;;;;;;;;;;16.40;99.90;;;;;;4965374;28;19936;-64
2024/03/20 11:47:53;;;;;;;;;;;16.50;99.90;;;;;;4950240;28;19930;-64
2024/03/20 11:50:19;;;;;;;;;;;16.50;99.90;;;;;;4964836;28;19934;-64
2024/03/20 11:52:45;;;;;;;;;;;16.50;99.90;;;;;;4977129;28;19933;-63
2024/03/20 11:55:12;;;;;;;;;;;16.60;99.90;;;;;;4990846;28;19925;-64
2024/03/20 11:57:39;;;;;;;;;;;16.70;99.90;;;;;;4978254;28;19930;-64
2024/03/20 12:00:08;;;;;;;;;;;16.70;99.90;;;;;;4966650;28;19930;-64
2024/03/20 12:02:37;;;;;;;;;;;16.70;99.90;;;;;;4952507;28;19926;-63
2024/03/20 12:05:05;;;;;;;;;;;16.70;99.90;;;;;;4950889;28;20024;-63
2024/03/20 12:07:36;;;;;;;;;;;16.80;99.90;;;;;;4976527;28;19944;-64
2024/03/20 12:10:03;;;;;;;;;;;16.80;99.90;;;;;;4961740;28;19977;-64
2024/03/20 12:12:29;;;;;;;;;;;16.90;99.90;;;;;;4966850;28;19984;-64
2024/03/20 12:14:55;;;;;;;;;;;17.00;99.90;;;;;;4969816;28;19933;-64
2024/03/20 12:17:26;;;;;;;;;;;17.00;99.90;;;;;;4970487;28;19937;-63
2024/03/20 12:19:52;;;;;;;;;;;17.10;99.90;;;;;;4956330;28;20422;-64
2024/03/20 12:22:19;;;;;;;;;;;17.20;99.90;;;;;;4967702;28;19937;-64
2024/03/20 12:24:46;;;;;;;;;;;17.20;99.90;;;;;;4968233;28;19926;-64
2024/03/20 12:27:12;;;;;;;;;;;17.30;99.90;;;;;;4968510;28;19981;-64
2024/03/20 12:29:38;;;;;;;;;;;17.20;99.90;;;;;;4953877;28;19929;-64
2024/03/20 12:32:04;;;;;;;;;;;17.30;99.90;;;;;;4970843;28;19937;-64
2024/03/20 12:34:31;;;;;;;;;;;17.30;99.90;;;;;;4971408;28;20074;-64
2024/03/20 12:36:56;;;;;;;;;;;17.30;99.90;;;;;;4969952;28;19976;-63
2024/03/20 12:39:23;;;;;;;;;;;17.30;99.90;;;;;;4972307;28;19926;-64
2024/03/20 12:41:49;;;;;;;;;;;17.40;99.90;;;;;;4955295;28;19988;-64
2024/03/20 12:44:15;;;;;;;;;;;17.50;99.90;;;;;;4970821;28;20451;-63
2024/03/20 12:46:42;;;;;;;;;;;17.50;99.90;;;;;;4973365;28;19933;-64
2024/03/20 12:49:10;;;;;;;;;;;17.50;99.90;;;;;;4972983;28;19933;-64
2024/03/20 12:51:36;;;;;;;;;;;17.60;99.90;;;;;;4970332;28;20410;-64
2024/03/20 12:54:02;;;;;;;;;;;17.70;99.90;;;;;;4973452;28;19950;-64
2024/03/20 12:56:28;;;;;;;;;;;17.80;99.90;;;;;;4989594;28;19968;-64
2024/03/20 12:58:56;;;;;;;;;;;17.70;99.90;;;;;;4991442;28;19965;-64
2024/03/20 13:01:22;;;;;;;;;;;17.90;99.90;;;;;;4975776;28;20021;-64
2024/03/20 13:03:47;;;;;;;;;;;17.90;99.90;;;;;;4974186;28;19925;-64
2024/03/20 13:06:13;;;;;;;;;;;18.00;99.90;;;;;;4967114;28;19937;-64
2024/03/20 13:08:40;;;;;;;;;;;18.10;99.90;;;;;;4957426;28;19926;-64
2024/03/20 13:11:11;;;;;;;;;;;18.10;99.90;;;;;;4971484;28;19929;-63
2024/03/20 13:13:36;;;;;;;;;;;18.10;99.90;;;;;;4973144;28;20013;-64
2024/03/20 13:16:05;;;;;;;;;;;18.10;99.90;;;;;;4979292;28;20032;-63
2024/03/20 13:18:41;;;;;;;;;;;18.10;99.90;;;;;;4969309;28;19926;-63
2024/03/20 13:21:09;;;;;;;;;;;18.10;99.90;;;;;;4966180;28;19934;-64
2024/03/20 13:23:35;;;;;;;;;;;18.10;99.90;;;;;;4973600;28;19926;-64
2024/03/20 13:26:01;;;;;;;;;;;18.10;99.90;;;;;;4967772;28;20389;-64
2024/03/20 13:28:31;;;;;;;;;;;18.00;99.90;;;;;;4970499;28;20390;-64
2024/03/20 13:31:03;;;;;;;;;;;18.00;99.90;;;;;;4977960;28;20492;-64
2024/03/20 13:33:29;;;;;;;;;;;18.00;99.90;;;;;;4975736;28;19996;-64
2024/03/20 13:35:57;;;;;;;;;;;18.00;99.90;;;;;;4965930;28;20012;-64
2024/03/20 13:38:23;;;;;;;;;;;18.00;99.90;;;;;;4968933;28;19930;-64
2024/03/20 13:41:11;;;;;;;;;;;18.00;99.90;;;;;;4972218;28;19936;-64
2024/03/20 13:44:20;;;;;;;;;;;17.90;99.90;;;;;;4967489;28;19981;-64
2024/03/20 13:46:27;;;;;;;;;;;17.90;99.90;;;;;;4959109;28;19929;-64
2024/03/20 13:48:53;;;;;;;;;;;17.90;99.90;;;;;;4968897;28;19957;-64
2024/03/20 13:51:20;;;;;;;;;;;17.90;99.90;;;;;;4968717;28;19936;-64
2024/03/20 13:53:49;;;;;;;;;;;17.90;99.90;;;;;;4966649;28;20533;-64
2024/03/20 13:56:16;;;;;;;;;;;17.90;99.90;;;;;;4968075;28;19925;-64
2024/03/20 13:58:42;;;;;;;;;;;17.90;99.90;;;;;;4966595;28;19930;-64
2024/03/20 14:01:12;;;;;;;;;;;18.00;99.90;;;;;;4962615;28;20346;-64
2024/03/20 14:03:38;;;;;;;;;;;18.00;99.90;;;;;;4967730;28;19933;-64
2024/03/20 14:06:04;;;;;;;;;;;17.90;99.90;;;;;;4967577;28;19961;-64
2024/03/20 14:08:30;;;;;;;;;;;18.00;99.90;;;;;;4968147;28;19941;-64
2024/03/20 14:10:57;;;;;;;;;;;18.00;99.90;;;;;;4967990;28;19929;-64
2024/03/20 14:13:23;;;;;;;;;;;18.00;99.90;;;;;;4971520;28;19930;-64
2024/03/20 14:15:48;;;;;;;;;;;18.00;99.90;;;;;;4971263;28;19937;-64
2024/03/20 14:18:15;;;;;;;;;;;18.00;99.90;;;;;;4985334;28;20366;-64
2024/03/20 14:20:40;;;;;;;;;;;18.00;99.90;;;;;;4967472;28;19976;-64
2024/03/20 14:23:06;;;;;;;;;;;18.00;99.90;;;;;;4970652;28;19932;-64